createdAt,value
2022-11-08T00:01:17.778Z,13.64
2022-11-08T00:03:47.526Z,13.74
2022-11-08T00:06:34.751Z,13.65
2022-11-08T00:09:22.751Z,13.58
2022-11-08T00:12:10.392Z,13.49
2022-11-08T00:14:40.217Z,13.49
2022-11-08T00:17:10.519Z,13.58
2022-11-08T00:19:40.334Z,13.41
2022-11-08T00:22:12.677Z,13.25
2022-11-08T00:24:42.464Z,13.20
2022-11-08T00:27:17.768Z,13.20
2022-11-08T00:29:47.927Z,13.50
2022-11-08T00:32:20.314Z,13.32
2022-11-08T00:34:50.596Z,13.35
2022-11-08T00:37:22.467Z,13.19
2022-11-08T00:39:52.527Z,13.13
2022-11-08T00:42:22.025Z,13.01
2022-11-08T00:44:51.802Z,13.16
2022-11-08T00:47:21.847Z,13.03
2022-11-08T00:49:51.336Z,13.12
2022-11-08T00:52:21.104Z,12.98
2022-11-08T00:54:50.862Z,13.01
2022-11-08T00:57:31.008Z,13.02
2022-11-08T00:59:52.032Z,12.96
2022-11-08T01:02:21.576Z,12.99
2022-11-08T01:04:51.366Z,12.90
2022-11-08T01:07:21.105Z,12.93
2022-11-08T01:09:50.840Z,12.93
2022-11-08T01:12:20.872Z,12.73
2022-11-08T01:14:50.708Z,12.61
2022-11-08T01:17:20.462Z,12.61
2022-11-08T01:19:50.263Z,12.68
2022-11-08T01:22:19.726Z,12.66
2022-11-08T01:24:49.765Z,12.77
2022-11-08T01:27:19.519Z,12.71
2022-11-08T01:29:49.259Z,12.53
2022-11-08T01:32:19.320Z,12.71
2022-11-08T01:34:49.087Z,12.67
2022-11-08T01:37:19.156Z,12.70
2022-11-08T01:39:48.899Z,12.61
2022-11-08T01:42:18.639Z,12.57
2022-11-08T01:45:02.910Z,12.49
2022-11-08T01:47:32.726Z,12.49
2022-11-08T01:50:11.867Z,12.50
2022-11-08T01:52:47.545Z,12.38
2022-11-08T01:55:22.430Z,12.35
2022-11-08T01:58:12.861Z,12.49
2022-11-08T02:00:42.960Z,12.46
2022-11-08T02:03:15.487Z,12.53
2022-11-08T02:05:46.582Z,12.56
2022-11-08T02:08:21.782Z,12.58
2022-11-08T02:10:53.750Z,12.41
2022-11-08T02:13:26.282Z,12.46
2022-11-08T02:15:56.469Z,12.44
2022-11-08T02:18:29.261Z,12.35
2022-11-08T02:21:26.009Z,12.26
2022-11-08T02:23:59.395Z,12.42
2022-11-08T02:26:36.557Z,12.46
2022-11-08T02:29:25.979Z,12.48
2022-11-08T02:31:56.944Z,12.47
2022-11-08T02:34:29.606Z,12.56
2022-11-08T02:37:00.725Z,12.53
2022-11-08T02:39:32.418Z,12.16
2022-11-08T02:42:02.917Z,12.43
2022-11-08T02:44:32.648Z,12.49
2022-11-08T02:47:02.398Z,12.44
2022-11-08T02:49:32.396Z,12.50
2022-11-08T02:52:02.158Z,12.38
2022-11-08T02:54:32.068Z,12.42
2022-11-08T02:57:01.978Z,12.56
2022-11-08T02:59:31.761Z,12.54
2022-11-08T03:02:01.767Z,12.47
2022-11-08T03:04:31.616Z,12.43
2022-11-08T03:07:01.691Z,12.60
2022-11-08T03:09:31.784Z,12.47
2022-11-08T03:12:01.645Z,12.41
2022-11-08T03:14:31.116Z,12.48
2022-11-08T03:17:00.865Z,12.52
2022-11-08T03:19:30.345Z,12.47
2022-11-08T03:22:00.140Z,12.57
2022-11-08T03:24:29.985Z,12.39
2022-11-08T03:26:59.740Z,12.44
2022-11-08T03:29:29.808Z,12.36
2022-11-08T03:31:59.529Z,12.54
2022-11-08T03:34:29.268Z,12.43
2022-11-08T03:36:59.006Z,12.43
2022-11-08T03:39:28.771Z,12.35
2022-11-08T03:42:00.125Z,12.41
2022-11-08T03:44:30.382Z,12.40
2022-11-08T03:47:01.464Z,12.27
2022-11-08T03:49:31.202Z,12.31
2022-11-08T03:52:00.661Z,12.21
2022-11-08T03:54:30.400Z,12.25
2022-11-08T03:57:00.163Z,12.25
2022-11-08T03:59:29.893Z,12.18
2022-11-08T04:01:59.850Z,11.94
2022-11-08T04:04:29.665Z,11.83
2022-11-08T04:06:59.231Z,11.91
2022-11-08T04:09:28.944Z,11.97
2022-11-08T04:12:16.013Z,11.98
2022-11-08T04:15:03.556Z,11.85
2022-11-08T04:17:50.894Z,11.89
2022-11-08T04:20:38.220Z,11.75
2022-11-08T04:23:07.951Z,11.88
2022-11-08T04:25:37.703Z,11.85
2022-11-08T04:28:09.865Z,11.85
2022-11-08T04:30:39.603Z,11.99
2022-11-08T04:33:09.630Z,12.04
2022-11-08T04:35:39.401Z,12.14
2022-11-08T04:38:11.297Z,12.02
2022-11-08T04:40:41.055Z,11.91
2022-11-08T04:43:10.950Z,12.03
2022-11-08T04:45:41.246Z,11.99
2022-11-08T04:48:11.492Z,11.90
2022-11-08T04:50:41.216Z,11.96
2022-11-08T04:53:10.947Z,12.02
2022-11-08T04:55:40.668Z,12.01
2022-11-08T04:58:11.366Z,11.91
2022-11-08T05:00:41.430Z,11.94
2022-11-08T05:03:10.908Z,12.03
2022-11-08T05:05:40.662Z,12.12
2022-11-08T05:08:11.317Z,12.14
2022-11-08T05:10:41.058Z,11.93
2022-11-08T05:13:10.807Z,11.96
2022-11-08T05:15:40.553Z,12.08
2022-11-08T05:18:10.280Z,12.13
2022-11-08T05:20:58.130Z,12.20
2022-11-08T05:23:27.932Z,12.06
2022-11-08T05:25:58.951Z,11.92
2022-11-08T05:28:28.387Z,12.03
2022-11-08T05:30:58.680Z,11.97
2022-11-08T05:33:28.967Z,12.11
2022-11-08T05:36:04.675Z,12.00
2022-11-08T05:38:32.465Z,12.05
2022-11-08T05:41:09.648Z,12.05
2022-11-08T05:43:39.619Z,12.01
2022-11-08T05:46:11.119Z,12.10
2022-11-08T05:48:42.378Z,11.95
2022-11-08T05:51:13.673Z,12.05
2022-11-08T05:53:43.390Z,11.76
2022-11-08T05:56:13.032Z,11.87
2022-11-08T05:58:42.790Z,11.86
2022-11-08T06:01:15.180Z,11.98
2022-11-08T06:03:45.188Z,12.00
2022-11-08T06:06:19.855Z,11.75
2022-11-08T06:08:52.426Z,11.77
2022-11-08T06:11:25.090Z,12.00
2022-11-08T06:13:56.066Z,11.79
2022-11-08T06:16:26.249Z,11.87
2022-11-08T06:18:56.059Z,11.99
2022-11-08T06:21:27.187Z,11.96
2022-11-08T06:23:56.958Z,11.76
2022-11-08T06:26:26.567Z,11.76
2022-11-08T06:28:56.695Z,11.90
2022-11-08T06:31:26.689Z,11.80
2022-11-08T06:33:56.759Z,11.84
2022-11-08T06:36:26.488Z,11.84
2022-11-08T06:38:56.786Z,11.85
2022-11-08T06:41:29.790Z,11.97
2022-11-08T06:43:59.377Z,11.84
2022-11-08T06:46:29.151Z,11.77
2022-11-08T06:48:58.912Z,11.83
2022-11-08T06:51:28.928Z,11.83
2022-11-08T06:53:59.234Z,11.90
2022-11-08T06:56:28.986Z,11.79
2022-11-08T06:58:58.835Z,11.83
2022-11-08T07:01:28.447Z,11.83
2022-11-08T07:03:58.202Z,11.75
2022-11-08T07:06:27.916Z,11.71
2022-11-08T07:08:57.695Z,11.67
2022-11-08T07:11:27.451Z,11.86
2022-11-08T07:13:57.182Z,11.81
2022-11-08T07:16:26.623Z,12.05
2022-11-08T07:18:56.363Z,12.02
2022-11-08T07:21:26.070Z,11.98
2022-11-08T07:23:56.131Z,12.17
2022-11-08T07:26:25.708Z,12.13
2022-11-08T07:28:55.438Z,12.18
2022-11-08T07:31:25.799Z,12.39
2022-11-08T07:33:55.527Z,12.29
2022-11-08T07:36:24.971Z,12.29
2022-11-08T07:38:54.791Z,12.61
2022-11-08T07:41:24.531Z,12.49
2022-11-08T07:43:54.277Z,12.76
2022-11-08T07:46:24.077Z,12.86
2022-11-08T07:48:54.116Z,12.88
2022-11-08T07:51:23.620Z,12.88
2022-11-08T07:53:53.353Z,12.71
2022-11-08T07:56:26.654Z,13.02
2022-11-08T07:58:56.364Z,12.86
2022-11-08T08:01:26.202Z,12.92
2022-11-08T08:03:56.008Z,12.84
2022-11-08T08:06:26.261Z,12.97
2022-11-08T08:08:55.992Z,12.83
2022-11-08T08:11:30.848Z,12.89
2022-11-08T08:13:57.173Z,12.89
2022-11-08T08:16:26.610Z,12.91
2022-11-08T08:18:56.967Z,12.93
2022-11-08T08:21:26.741Z,13.16
2022-11-08T08:23:56.467Z,13.18
2022-11-08T08:26:26.204Z,13.14
2022-11-08T08:28:55.968Z,13.14
2022-11-08T08:31:25.761Z,13.21
2022-11-08T08:33:55.534Z,13.22
2022-11-08T08:36:25.276Z,13.32
2022-11-08T08:38:54.785Z,13.37
2022-11-08T08:41:24.533Z,13.47
2022-11-08T08:43:54.267Z,13.55
2022-11-08T08:46:24.008Z,13.40
2022-11-08T08:48:53.741Z,13.56
2022-11-08T08:51:23.572Z,13.66
2022-11-08T08:53:53.293Z,13.52
2022-11-08T08:56:22.989Z,13.61
2022-11-08T09:01:39.522Z,13.80
2022-11-08T09:03:55.585Z,13.80
2022-11-08T09:06:25.445Z,13.75
2022-11-08T09:08:55.152Z,13.84
2022-11-08T09:11:24.898Z,13.64
2022-11-08T09:13:54.329Z,13.74
2022-11-08T09:16:24.218Z,13.86
2022-11-08T09:18:54.031Z,13.87
2022-11-08T09:21:24.103Z,13.98
2022-11-08T09:23:53.897Z,13.98
2022-11-08T09:26:23.342Z,13.92
2022-11-08T09:28:53.060Z,14.08
2022-11-08T09:31:22.790Z,14.41
2022-11-08T09:33:52.869Z,14.41
2022-11-08T09:36:22.631Z,14.57
2022-11-08T09:38:52.366Z,14.57
2022-11-08T09:41:30.479Z,14.56
2022-11-08T09:44:23.962Z,14.42
2022-11-08T09:46:59.547Z,14.48
2022-11-08T09:49:34.685Z,14.43
2022-11-08T09:52:06.880Z,14.31
2022-11-08T09:54:44.984Z,14.48
2022-11-08T09:57:29.580Z,14.43
2022-11-08T10:00:05.021Z,14.51
2022-11-08T10:02:37.598Z,14.55
2022-11-08T10:05:11.063Z,14.55
2022-11-08T10:08:00.669Z,14.73
2022-11-08T10:10:33.306Z,14.71
2022-11-08T10:13:23.712Z,14.75
2022-11-08T10:16:11.400Z,14.83
2022-11-08T10:19:00.582Z,14.61
2022-11-08T10:21:58.724Z,14.63
2022-11-08T10:24:37.381Z,14.82
2022-11-08T10:27:19.057Z,14.82
2022-11-08T10:29:51.875Z,15.14
2022-11-08T10:32:25.378Z,15.16
2022-11-08T10:35:04.355Z,15.25
2022-11-08T10:37:35.047Z,15.64
2022-11-08T10:40:34.425Z,15.70
2022-11-08T10:43:13.334Z,15.61
2022-11-08T10:45:43.150Z,15.61
2022-11-08T10:48:16.096Z,15.65
2022-11-08T10:50:48.884Z,15.88
2022-11-08T10:53:27.629Z,15.65
2022-11-08T10:56:04.895Z,15.53
2022-11-08T10:58:43.788Z,15.53
2022-11-08T11:01:19.110Z,15.56
2022-11-08T11:03:49.768Z,15.65
2022-11-08T11:06:30.101Z,15.45
2022-11-08T11:09:05.953Z,15.72
2022-11-08T11:11:38.504Z,15.48
2022-11-08T11:14:22.888Z,15.68
2022-11-08T11:16:58.465Z,15.54
2022-11-08T11:19:29.493Z,15.74
2022-11-08T11:22:09.737Z,15.93
2022-11-08T11:24:51.083Z,15.74
2022-11-08T11:27:29.506Z,15.94
2022-11-08T11:30:22.897Z,15.87
2022-11-08T11:33:20.224Z,15.70
2022-11-08T11:35:50.464Z,15.93
2022-11-08T11:38:39.217Z,15.82
2022-11-08T11:41:12.074Z,15.91
2022-11-08T11:43:47.307Z,15.94
2022-11-08T11:46:25.411Z,16.02
2022-11-08T11:49:02.943Z,15.85
2022-11-08T11:51:32.766Z,15.88
2022-11-08T11:54:05.891Z,16.16
2022-11-08T11:59:51.575Z,16.23
2022-11-08T12:02:41.758Z,16.48
2022-11-08T12:05:31.553Z,16.40
2022-11-08T12:08:07.230Z,16.46
2022-11-08T12:10:49.790Z,16.64
2022-11-08T12:13:28.587Z,16.83
2022-11-08T12:16:19.161Z,16.70
2022-11-08T12:19:17.435Z,16.68
2022-11-08T12:21:55.692Z,16.63
2022-11-08T12:24:52.192Z,16.58
2022-11-08T12:27:36.653Z,16.72
2022-11-08T12:30:14.944Z,16.68
2022-11-08T12:33:05.625Z,16.46
2022-11-08T12:35:47.083Z,16.48
2022-11-08T12:38:35.077Z,16.35
2022-11-08T12:41:13.504Z,16.72
2022-11-08T12:43:49.186Z,16.32
2022-11-08T12:46:19.910Z,16.41
2022-11-08T12:49:03.918Z,16.43
2022-11-08T12:51:52.466Z,15.98
2022-11-08T12:54:28.042Z,16.28
2022-11-08T12:57:00.820Z,16.29
2022-11-08T12:59:39.094Z,16.43
2022-11-08T13:02:17.021Z,16.43
2022-11-08T13:04:50.184Z,16.40
2022-11-08T13:07:44.799Z,16.36
2022-11-08T13:10:52.788Z,16.41
2022-11-08T13:13:53.381Z,16.65
2022-11-08T13:16:25.884Z,16.72
2022-11-08T13:18:58.260Z,16.86
2022-11-08T13:21:31.058Z,16.96
2022-11-08T13:24:38.368Z,16.97
2022-11-08T13:26:43.383Z,16.85
2022-11-08T13:29:21.710Z,16.55
2022-11-08T13:32:03.229Z,16.98
2022-11-08T13:34:38.663Z,16.90
2022-11-08T13:37:30.170Z,16.87
2022-11-08T13:40:20.661Z,17.02
2022-11-08T13:42:59.113Z,16.87
2022-11-08T13:45:31.881Z,16.73
2022-11-08T13:48:04.500Z,16.97
2022-11-08T13:50:48.113Z,17.08
2022-11-08T13:53:23.817Z,16.82
2022-11-08T13:58:38.208Z,16.97
2022-11-08T14:01:25.527Z,16.97
2022-11-08T14:03:57.347Z,17.25
2022-11-08T14:06:36.224Z,16.99
2022-11-08T14:09:25.360Z,17.02
2022-11-08T14:12:07.489Z,17.02
2022-11-08T14:14:54.927Z,17.23
2022-11-08T14:17:36.326Z,17.12
2022-11-08T14:20:22.838Z,16.99
2022-11-08T14:22:52.952Z,16.97
2022-11-08T14:25:34.847Z,17.16
2022-11-08T14:28:08.773Z,17.08
2022-11-08T14:30:38.511Z,16.97
2022-11-08T14:33:20.092Z,16.98
2022-11-08T14:35:58.652Z,16.92
2022-11-08T14:38:33.930Z,16.83
2022-11-08T14:41:06.302Z,16.92
2022-11-08T14:43:39.091Z,16.91
2022-11-08T14:46:15.124Z,16.81
2022-11-08T14:48:55.093Z,16.69
2022-11-08T14:51:26.076Z,16.65
2022-11-08T14:53:56.789Z,16.61
2022-11-08T14:56:28.784Z,16.60
2022-11-08T14:58:58.524Z,16.74
2022-11-08T15:01:30.278Z,16.63
2022-11-08T15:04:09.087Z,16.64
2022-11-08T15:06:44.694Z,16.49
2022-11-08T15:09:23.112Z,16.26
2022-11-08T15:11:55.884Z,16.50
2022-11-08T15:14:28.128Z,16.39
2022-11-08T15:17:03.161Z,16.37
2022-11-08T15:19:42.463Z,16.17
2022-11-08T15:22:33.294Z,16.16
2022-11-08T15:25:17.397Z,16.27
2022-11-08T15:27:51.623Z,16.44
2022-11-08T15:30:24.295Z,16.14
2022-11-08T15:32:54.346Z,16.30
2022-11-08T15:35:38.348Z,16.43
2022-11-08T15:38:30.265Z,16.29
2022-11-08T15:41:03.410Z,16.28
2022-11-08T15:43:38.029Z,16.33
2022-11-08T15:46:12.053Z,16.41
2022-11-08T15:48:41.793Z,16.23
2022-11-08T15:51:11.540Z,16.21
2022-11-08T15:53:41.833Z,16.20
2022-11-08T15:56:14.033Z,16.32
2022-11-08T15:58:44.059Z,16.40
2022-11-08T16:01:19.876Z,16.10
2022-11-08T16:03:49.326Z,16.09
2022-11-08T16:06:18.933Z,16.15
2022-11-08T16:08:48.655Z,16.14
2022-11-08T16:11:23.769Z,16.06
2022-11-08T16:13:53.568Z,16.20
2022-11-08T16:16:22.982Z,15.94
2022-11-08T16:18:53.016Z,15.94
2022-11-08T16:21:22.813Z,15.99
2022-11-08T16:23:52.834Z,15.99
2022-11-08T16:26:22.347Z,15.81
2022-11-08T16:28:52.376Z,15.76
2022-11-08T16:31:22.269Z,15.93
2022-11-08T16:33:53.991Z,15.79
2022-11-08T16:36:26.664Z,15.79
2022-11-08T16:38:59.169Z,15.67
2022-11-08T16:41:28.893Z,15.85
2022-11-08T16:44:00.158Z,15.74
2022-11-08T16:46:30.318Z,15.74
2022-11-08T16:49:00.670Z,15.69
2022-11-08T16:51:30.603Z,15.64
2022-11-08T16:54:02.849Z,15.70
2022-11-08T16:56:32.584Z,15.70
2022-11-08T16:59:02.325Z,15.52
2022-11-08T17:01:34.451Z,15.50
2022-11-08T17:04:04.671Z,15.27
2022-11-08T17:06:34.159Z,15.53
2022-11-08T17:09:04.068Z,15.69
2022-11-08T17:11:33.858Z,15.53
2022-11-08T17:14:03.324Z,15.55
2022-11-08T17:16:33.058Z,15.64
2022-11-08T17:19:04.644Z,15.68
2022-11-08T17:21:50.077Z,15.81
2022-11-08T17:24:07.384Z,15.81
2022-11-08T17:26:37.195Z,15.75
2022-11-08T17:29:08.018Z,15.60
2022-11-08T17:31:38.116Z,15.62
2022-11-08T17:34:11.030Z,15.55
2022-11-08T17:36:40.860Z,15.65
2022-11-08T17:39:12.251Z,15.84
2022-11-08T17:41:41.968Z,15.91
2022-11-08T17:44:14.544Z,15.80
2022-11-08T17:46:44.282Z,15.57
2022-11-08T17:49:14.185Z,15.52
2022-11-08T17:51:43.936Z,15.50
2022-11-08T17:54:15.570Z,15.41
2022-11-08T17:56:45.307Z,15.48
2022-11-08T17:59:15.706Z,15.31
2022-11-08T18:01:46.405Z,15.37
2022-11-08T18:04:15.879Z,15.37
2022-11-08T18:06:45.954Z,15.14
2022-11-08T18:09:15.689Z,15.15
2022-11-08T18:11:47.095Z,15.26
2022-11-08T18:14:18.798Z,15.15
2022-11-08T18:16:49.287Z,15.12
2022-11-08T18:19:22.227Z,15.31
2022-11-08T18:21:52.029Z,15.08
2022-11-08T18:24:22.293Z,15.16
2022-11-08T18:26:52.112Z,15.13
2022-11-08T18:29:22.165Z,15.04
2022-11-08T18:31:51.925Z,15.00
2022-11-08T18:34:21.666Z,15.10
2022-11-08T18:36:51.396Z,15.03
2022-11-08T18:39:21.432Z,14.98
2022-11-08T18:41:51.251Z,15.16
2022-11-08T18:44:21.039Z,14.93
2022-11-08T18:46:50.807Z,15.17
2022-11-08T18:49:20.919Z,14.97
2022-11-08T18:51:52.627Z,14.97
2022-11-08T18:54:22.636Z,14.96
2022-11-08T18:56:52.416Z,15.19
2022-11-08T18:59:22.630Z,15.19
2022-11-08T19:01:52.398Z,14.93
2022-11-08T19:04:22.931Z,14.85
2022-11-08T19:06:54.792Z,14.96
2022-11-08T19:09:24.423Z,14.82
2022-11-08T19:11:54.152Z,15.14
2022-11-08T19:14:24.014Z,15.13
2022-11-08T19:16:55.385Z,15.20
2022-11-08T19:19:25.507Z,15.13
2022-11-08T19:21:55.281Z,15.21
2022-11-08T19:24:24.989Z,15.12
2022-11-08T19:26:55.023Z,15.09
2022-11-08T19:29:24.800Z,15.14
2022-11-08T19:31:54.538Z,15.17
2022-11-08T19:34:24.281Z,15.21
2022-11-08T19:36:56.062Z,15.32
2022-11-08T19:39:25.521Z,15.21
2022-11-08T19:41:54.946Z,15.21
2022-11-08T19:44:24.811Z,15.22
2022-11-08T19:46:54.566Z,15.14
2022-11-08T19:49:25.724Z,15.17
2022-11-08T19:51:55.460Z,15.43
2022-11-08T19:54:25.182Z,15.24
2022-11-08T19:57:10.268Z,15.29
2022-11-08T19:59:26.395Z,15.32
2022-11-08T20:01:56.212Z,15.52
2022-11-08T20:04:26.019Z,15.26
2022-11-08T20:06:56.096Z,15.22
2022-11-08T20:09:30.267Z,15.22
2022-11-08T20:11:57.285Z,15.42
2022-11-08T20:14:27.323Z,15.31
2022-11-08T20:16:57.066Z,15.47
2022-11-08T20:19:26.793Z,15.47
2022-11-08T20:21:58.400Z,15.44
2022-11-08T20:24:28.031Z,15.59
2022-11-08T20:26:57.754Z,15.66
2022-11-08T20:29:27.567Z,15.54
2022-11-08T20:31:57.315Z,15.65
2022-11-08T20:34:27.284Z,15.65
2022-11-08T20:36:57.162Z,15.68
2022-11-08T20:39:26.928Z,15.54
2022-11-08T20:41:56.661Z,15.76
2022-11-08T20:44:26.391Z,15.63
2022-11-08T20:46:55.834Z,15.87
2022-11-08T20:49:25.566Z,15.67
2022-11-08T20:51:55.291Z,15.74
2022-11-08T20:54:25.058Z,15.67
2022-11-08T20:56:54.802Z,15.91
2022-11-08T20:59:24.532Z,15.66
2022-11-08T21:01:54.887Z,15.77
2022-11-08T21:04:24.925Z,15.87
2022-11-08T21:07:42.581Z,15.93
2022-11-08T21:09:41.600Z,15.88
2022-11-08T21:12:00.768Z,15.88
2022-11-08T21:14:30.580Z,15.91
2022-11-08T21:17:21.289Z,15.94
2022-11-08T21:19:32.045Z,15.84
2022-11-08T21:22:16.900Z,15.97
2022-11-08T21:24:49.025Z,15.76
2022-11-08T21:27:18.915Z,15.76
2022-11-08T21:29:48.956Z,15.70
2022-11-08T21:32:18.705Z,15.70
2022-11-08T21:34:48.517Z,15.76
2022-11-08T21:37:18.258Z,15.89
2022-11-08T21:39:48.075Z,15.54
2022-11-08T21:42:17.810Z,15.50
2022-11-08T21:44:47.567Z,15.63
2022-11-08T21:47:17.042Z,15.61
2022-11-08T21:49:46.838Z,15.42
2022-11-08T21:52:16.357Z,15.30
2022-11-08T21:54:46.138Z,14.99
2022-11-08T21:57:15.681Z,14.99
2022-11-08T21:59:45.694Z,15.43
2022-11-08T22:02:18.266Z,15.31
2022-11-08T22:04:48.017Z,15.31
2022-11-08T22:07:17.813Z,15.38
2022-11-08T22:09:47.540Z,15.17
2022-11-08T22:12:17.723Z,15.27
2022-11-08T22:14:47.444Z,15.14
2022-11-08T22:17:17.248Z,15.15
2022-11-08T22:19:47.194Z,15.33
2022-11-08T22:22:17.915Z,14.97
2022-11-08T22:24:47.652Z,14.97
2022-11-08T22:27:18.029Z,15.15
2022-11-08T22:29:47.768Z,15.01
2022-11-08T22:32:18.611Z,14.94
2022-11-08T22:34:48.355Z,14.94
2022-11-08T22:37:18.080Z,15.01
2022-11-08T22:39:47.800Z,14.94
2022-11-08T22:42:17.893Z,14.94
2022-11-08T22:44:47.705Z,14.95
2022-11-08T22:47:17.460Z,14.81
2022-11-08T22:49:47.210Z,14.88
2022-11-08T22:52:17.895Z,14.86
2022-11-08T22:54:47.642Z,14.81
2022-11-08T22:57:17.425Z,14.91
2022-11-08T22:59:46.909Z,14.98
2022-11-08T23:02:18.196Z,14.86
2022-11-08T23:04:47.980Z,14.67
2022-11-08T23:07:17.797Z,14.88
2022-11-08T23:09:47.918Z,14.69
2022-11-08T23:12:35.857Z,14.70
2022-11-08T23:15:23.848Z,14.60
2022-11-08T23:17:53.654Z,14.63
2022-11-08T23:20:40.824Z,14.73
2022-11-08T23:23:27.697Z,14.46
2022-11-08T23:25:57.779Z,14.52
2022-11-08T23:28:45.034Z,14.68
2022-11-08T23:31:32.370Z,14.68
2022-11-08T23:34:02.764Z,14.49
2022-11-08T23:36:32.237Z,14.56
2022-11-08T23:39:02.257Z,14.23
2022-11-08T23:41:49.535Z,14.23
2022-11-08T23:44:23.977Z,14.36
2022-11-08T23:46:59.226Z,14.36
2022-11-08T23:49:29.986Z,14.36
2022-11-08T23:51:59.725Z,14.36
2022-11-08T23:54:29.757Z,14.54
2022-11-08T23:56:59.748Z,14.51
2022-11-08T23:59:29.763Z,14.55
